Fargo, North Dakota
Current Conditions -  °F | °C
As of 2:53 AM on Friday 24 Oct 2014 (Local Time) from KFAR Reporting Station
Clear Clear  
Wind Chill: 11°   Ceiling: Unl
Heat Index: 11°   Visibility: 10mi
Dew Point:   Wind: 9mph
Humidity: 74%   Direction: 170°S
Pressure: 29.81"   Gusts: NA
Location:  46.88°N, 96.78°W
Report Text: KFAR 240753Z 17008KT 10SM CLR 11/06 A2981 RMK AO2 SLP094 T01060061
Loading
Personal Weather Stations






























Interactive Weather Map
Tropical Storm Tracking
New forecast layout! Learn more

10-Day Weather Forecast

Advertisements
Track Severe Weather on mobile